Hornsea, United Kingdom
Current Conditions -  °F | °C
As of 8:50 PM on Friday 31 Oct 2014 (Local Time) from EGXV Reporting Station
Clear Clear  
Wind Chill: 63°   Ceiling: Unl
Heat Index: 63°   Visibility: 6mi
Dew Point: 55°   Wind: 14mph
Humidity: 77%   Direction: 190°S
Pressure: 29.83"   Gusts: 25mph
Location:  53.91°N, 0.17°W
Report Text: EGXV 312050Z AUTO 19012G22KT 9999 NCD 17/13 Q1010
Loading
Personal Weather Stations






























Interactive Weather Map
Tropical Storm Tracking
New forecast layout! Learn more

10-Day Weather Forecast

Advertisements
Track Severe Weather on mobile